Time;durP1;ratioP1;P1;durP2;ratioP2;P2;SDS_P1;SDS_P2;PMS_P1;PMS_P2;Temp;Humidity;BMP_temperature;BMP_pressure;BME280_temperature;BME280_humidity;BME280_pressure;Samples;Min_cycle;Max_cycle;Signal;HPM_P1;HPM_P2
2023/11/20 00:00:23;;;;;;;1.70;0.60;;;16.00;99.90;;;15.93;59.90;100584.81;4840565;28;97968;-90
2023/11/20 00:03:06;;;;;;;2.13;0.60;;;16.00;99.90;;;16.02;59.43;100581.59;4852244;28;97812;-93
2023/11/20 00:05:33;;;;;;;3.43;0.83;;;16.10;99.90;;;16.05;59.17;100587.56;4820004;28;103544;-89
2023/11/20 00:08:04;;;;;;;2.47;0.60;;;16.10;99.90;;;15.93;59.92;100582.16;4797205;28;103502;-93
2023/11/20 00:10:38;;;;;;;6.87;0.50;;;16.00;99.90;;;15.94;59.65;100578.53;4717029;28;97033;-90
2023/11/20 00:13:15;;;;;;;1.73;0.50;;;15.90;99.90;;;15.94;59.62;100578.53;4717976;28;97582;-94
2023/11/20 00:15:55;;;;;;;2.17;0.47;;;15.90;99.90;;;16.04;58.99;100575.22;4765523;28;103391;-95
2023/11/20 00:18:22;;;;;;;3.23;0.70;;;16.00;99.90;;;16.05;59.16;100579.59;4806751;28;98069;-90
2023/11/20 00:20:50;;;;;;;2.47;0.60;;;16.10;99.90;;;15.90;59.68;100571.66;4804811;28;97502;-93
2023/11/20 00:23:18;;;;;;;2.67;0.60;;;16.00;99.90;;;15.84;59.83;100578.22;4877102;28;97535;-89
2023/11/20 00:25:44;;;;;;;2.47;0.73;;;15.90;99.90;;;15.85;60.15;100573.75;4785797;28;100025;-89
2023/11/20 00:28:10;;;;;;;5.93;0.40;;;15.80;99.90;;;15.89;59.68;100576.13;4848850;28;98300;-91
2023/11/20 00:30:35;;;;;;;2.70;0.37;;;15.90;99.90;;;16.04;59.00;100569.03;4862383;28;98835;-90
2023/11/20 00:33:04;;;;;;;0.27;0.20;;;16.00;99.90;;;16.02;58.90;100570.94;4880518;28;97622;-90
2023/11/20 00:35:36;;;;;;;2.83;0.60;;;16.10;99.90;;;16.16;58.64;100578.97;4908922;28;100932;-90
2023/11/20 00:38:03;;;;;;;7.50;0.90;;;16.20;99.90;;;15.98;59.39;100580.91;4868087;28;101210;-90
2023/11/20 00:40:29;;;;;;;3.07;0.50;;;16.00;99.90;;;15.93;59.77;100576.84;4872604;28;97056;-89
2023/11/20 00:42:58;;;;;;;2.30;0.43;;;15.90;99.90;;;15.84;59.45;100588.00;4875749;28;96989;-91
2023/11/20 00:45:24;;;;;;;1.23;0.30;;;15.80;99.90;;;15.88;59.74;100587.72;4850575;28;102762;-90
2023/11/20 00:47:50;;;;;;;3.90;0.53;;;15.90;99.90;;;15.83;60.01;100584.47;4892762;28;98720;-91
2023/11/20 00:50:18;;;;;;;2.57;0.50;;;15.90;99.90;;;15.91;59.49;100586.69;4863220;28;97228;-90
2023/11/20 00:52:44;;;;;;;2.13;0.30;;;15.90;99.90;;;15.89;59.42;100576.13;4785340;28;98003;-90
2023/11/20 00:55:10;;;;;;;3.13;0.50;;;15.90;99.90;;;15.95;59.28;100580.25;4829965;28;100667;-90
2023/11/20 00:57:39;;;;;;;2.33;0.40;;;16.00;99.90;;;15.93;59.56;100583.00;4830363;28;97523;-93
2023/11/20 01:00:11;;;;;;;2.77;0.70;;;16.00;99.90;;;15.74;60.89;100572.56;4819111;28;97056;-93
2023/11/20 01:02:40;;;;;;;1.03;0.37;;;15.80;99.90;;;15.87;60.34;100580.69;4808106;28;101512;-92
2023/11/20 01:05:19;;;;;;;2.03;0.50;;;15.90;99.90;;;15.74;61.83;100583.22;4879846;28;98865;-90
2023/11/20 01:07:55;;;;;;;1.20;0.50;;;15.80;99.90;;;15.90;59.86;100588.47;4777659;28;100947;-92
2023/11/20 01:10:24;;;;;;;2.17;0.80;;;15.90;99.90;;;16.05;59.23;100586.72;4774148;28;97725;-90
2023/11/20 01:13:10;;;;;;;2.27;0.60;;;16.10;99.90;;;16.10;59.26;100584.66;4823873;28;97095;-90
2023/11/20 01:15:39;;;;;;;2.87;0.67;;;16.20;99.90;;;16.06;59.62;100588.47;4760564;28;104746;-92
2023/11/20 01:18:06;;;;;;;4.97;0.60;;;16.10;99.90;;;16.11;58.91;100578.41;4821639;28;99477;-90
2023/11/20 01:20:33;;;;;;;3.63;0.67;;;16.10;99.90;;;16.10;60.78;100582.00;4884838;28;97215;-91
2023/11/20 01:22:59;;;;;;;0.73;0.40;;;16.20;99.90;;;15.98;60.92;100586.25;4871025;28;97535;-89
2023/11/20 01:25:35;;;;;;;5.47;0.63;;;16.00;99.90;;;15.96;60.99;100593.47;4835788;28;97916;-92
2023/11/20 01:28:02;;;;;;;2.97;0.70;;;15.90;99.90;;;15.80;62.73;100589.13;4818810;28;100578;-89
2023/11/20 01:30:27;;;;;;;2.23;0.40;;;15.80;99.90;;;15.79;62.08;100587.41;4903556;28;100101;-90
2023/11/20 01:32:54;;;;;;;7.03;0.60;;;15.70;99.90;;;15.96;59.94;100592.59;4869935;28;103462;-92
2023/11/20 01:35:20;;;;;;;3.07;0.47;;;15.80;99.90;;;15.87;60.98;100588.66;4893990;28;97950;-90
2023/11/20 01:37:47;;;;;;;5.20;0.60;;;15.90;99.90;;;15.98;60.08;100596.03;4882851;28;98524;-90
2023/11/20 01:40:13;;;;;;;1.90;0.53;;;15.90;99.90;;;15.91;60.69;100586.69;4898086;28;104340;-90
2023/11/20 01:42:39;;;;;;;5.40;0.50;;;15.90;99.90;;;15.80;61.70;100586.47;4903115;28;97296;-90
2023/11/20 01:45:09;;;;;;;3.13;0.67;;;15.80;99.90;;;15.63;62.14;100585.66;4896796;28;98394;-90
2023/11/20 01:47:37;;;;;;;2.13;0.53;;;15.60;99.90;;;15.47;63.59;100584.75;4927231;28;97418;-89
2023/11/20 01:50:10;;;;;;;2.40;0.27;;;15.40;99.90;;;15.50;61.54;100573.97;4905458;28;100745;-89
2023/11/20 01:52:45;;;;;;;1.83;0.40;;;15.40;99.90;;;15.60;61.79;100585.81;4912567;28;97100;-89
2023/11/20 01:55:14;;;;;;;0.57;0.30;;;15.60;99.90;;;15.64;61.32;100579.38;4896294;28;97928;-90
2023/11/20 01:57:44;;;;;;;2.00;0.60;;;15.60;99.90;;;15.70;61.17;100587.00;4916189;28;97748;-89
2023/11/20 02:00:12;;;;;;;4.07;0.70;;;15.70;99.90;;;15.64;61.69;100579.38;4894981;28;97455;-90
2023/11/20 02:02:42;;;;;;;3.30;0.50;;;15.60;99.90;;;15.68;61.61;100591.56;4856358;28;106254;-90
2023/11/20 02:05:09;;;;;;;2.77;0.30;;;15.60;99.90;;;15.72;60.64;100585.09;4852476;28;100031;-90
2023/11/20 02:07:36;;;;;;;3.13;0.37;;;15.60;99.90;;;15.73;60.80;100594.78;4910768;28;99065;-90
2023/11/20 02:10:07;;;;;;;1.87;0.50;;;15.80;99.90;;;15.75;60.89;100574.28;4901721;28;97133;-90
2023/11/20 02:12:34;;;;;;;0.50;0.37;;;15.70;99.90;;;15.90;59.94;100583.16;4880720;28;97995;-90
2023/11/20 02:15:08;;;;;;;0.83;0.40;;;15.80;99.90;;;15.82;60.55;100574.78;4933066;28;102991;-93
2023/11/20 02:17:37;;;;;;;2.63;0.60;;;15.80;99.90;;;15.74;60.73;100580.53;4912197;28;101065;-89
2023/11/20 02:20:03;;;;;;;2.47;0.40;;;15.60;99.90;;;15.77;60.55;100572.41;4887878;28;104629;-90
2023/11/20 02:22:29;;;;;;;3.00;0.30;;;15.70;99.90;;;15.62;61.02;100573.31;4867890;28;98006;-90
2023/11/20 02:24:55;;;;;;;0.90;0.53;;;15.60;99.90;;;15.73;60.29;100565.53;4880883;28;101992;-92
2023/11/20 02:27:52;;;;;;;1.90;0.60;;;15.70;99.90;;;15.79;60.25;100563.50;4921308;28;105412;-90
2023/11/20 02:30:18;;;;;;;1.77;0.40;;;15.70;99.90;;;15.75;60.28;100563.63;4871265;28;98826;-90
2023/11/20 02:32:45;;;;;;;1.60;0.37;;;15.80;99.90;;;15.94;59.67;100565.25;4928121;28;98365;-93
2023/11/20 02:35:20;;;;;;;0.87;0.40;;;15.90;99.90;;;15.99;59.27;100560.50;4903266;28;100373;-89
2023/11/20 02:37:46;;;;;;;2.07;0.47;;;16.00;99.90;;;16.03;58.72;100562.00;4886840;28;98239;-90
2023/11/20 02:40:12;;;;;;;1.40;0.50;;;16.10;99.90;;;15.83;59.66;100568.53;4905406;28;97345;-93
2023/11/20 02:42:38;;;;;;;3.60;0.63;;;15.90;99.90;;;15.96;59.34;100561.53;4905773;28;98202;-90
2023/11/20 02:45:06;;;;;;;0.77;0.30;;;15.90;99.90;;;15.96;58.78;100571.31;4920147;28;97734;-89
2023/11/20 02:47:34;;;;;;;2.93;0.47;;;15.90;99.90;;;15.85;58.64;100560.47;4908687;28;101227;-90
2023/11/20 02:50:00;;;;;;;3.40;0.40;;;15.90;99.90;;;15.69;60.63;100564.00;4921937;28;97115;-90
2023/11/20 02:52:26;;;;;;;0.83;0.30;;;15.70;99.90;;;15.62;60.17;100557.34;4879778;28;98982;-90
2023/11/20 02:54:52;;;;;;;2.60;0.50;;;15.60;99.90;;;15.54;60.47;100548.91;4897757;28;98281;-89
2023/11/20 02:57:18;;;;;;;1.90;0.87;;;15.50;99.90;;;15.60;59.03;100537.94;4915107;28;97606;-89
2023/11/20 02:59:45;;;;;;;2.40;0.30;;;15.60;99.90;;;15.66;59.13;100548.25;4895489;28;99564;-91
2023/11/20 03:02:12;;;;;;;1.70;0.60;;;15.60;99.90;;;15.61;59.49;100544.97;4909270;28;97047;-90
2023/11/20 03:04:38;;;;;;;2.73;0.80;;;15.60;99.90;;;15.61;58.84;100539.66;4873260;28;98015;-89
2023/11/20 03:07:07;;;;;;;0.93;0.40;;;15.60;99.90;;;15.67;60.01;100543.78;4927122;28;103702;-89
2023/11/20 03:09:34;;;;;;;1.07;0.40;;;15.60;99.90;;;15.76;59.54;100544.06;4915429;28;97224;-91
2023/11/20 03:12:00;;;;;;;5.60;0.87;;;15.80;99.90;;;15.86;59.65;100543.56;4949665;28;98508;-89
2023/11/20 03:14:26;;;;;;;1.03;0.50;;;15.90;99.90;;;15.73;58.18;100549.59;4899887;28;97590;-91
2023/11/20 03:16:54;;;;;;;3.90;0.67;;;15.90;99.90;;;15.87;57.68;100550.56;4897989;28;98750;-90
2023/11/20 03:19:22;;;;;;;1.83;0.33;;;15.90;99.90;;;15.94;58.75;100558.13;4897189;28;100434;-92
2023/11/20 03:21:49;;;;;;;1.90;0.27;;;16.00;99.90;;;15.97;58.69;100557.06;4853762;28;97380;-90
2023/11/20 03:24:14;;;;;;;1.17;0.30;;;16.00;99.90;;;16.07;58.58;100547.59;4877324;28;99610;-89
2023/11/20 03:26:41;;;;;;;2.80;0.50;;;16.10;99.90;;;16.14;58.38;100548.06;4904094;28;97132;-94
2023/11/20 03:29:07;;;;;;;2.97;0.30;;;16.20;99.90;;;16.15;57.19;100549.78;4843224;28;97259;-90
2023/11/20 03:31:37;;;;;;;2.57;0.47;;;16.30;99.90;;;16.23;58.11;100550.19;4818681;28;97064;-89
2023/11/20 03:34:07;;;;;;;1.27;0.40;;;16.30;99.90;;;16.26;57.14;100550.84;4893858;28;102328;-89
2023/11/20 03:36:34;;;;;;;2.67;0.80;;;16.30;99.90;;;16.19;57.84;100545.97;4901574;28;101591;-91
2023/11/20 03:39:00;;;;;;;2.57;0.67;;;16.20;99.90;;;16.04;56.60;100553.09;4855217;28;97866;-90
2023/11/20 03:41:27;;;;;;;2.47;0.23;;;16.20;99.90;;;16.02;58.26;100547.00;4866626;28;99029;-89
2023/11/20 03:43:53;;;;;;;1.30;0.40;;;16.00;99.90;;;16.00;57.93;100551.56;4856633;28;98912;-90
2023/11/20 03:46:19;;;;;;;1.67;0.20;;;15.90;99.90;;;16.06;58.10;100540.56;4866977;28;98791;-92
2023/11/20 03:48:45;;;;;;;0.60;0.30;;;16.00;99.90;;;16.13;57.35;100541.91;4871135;28;97232;-90
2023/11/20 03:51:11;;;;;;;0.50;0.20;;;16.10;99.90;;;16.20;57.60;100543.25;4899398;28;96987;-90
2023/11/20 03:53:37;;;;;;;2.73;0.40;;;16.20;99.90;;;16.13;57.61;100541.03;4890662;28;100180;-91
2023/11/20 03:56:04;;;;;;;3.33;0.70;;;16.10;99.90;;;15.86;57.56;100538.22;4877360;28;97165;-89
2023/11/20 03:58:30;;;;;;;1.60;0.30;;;15.80;99.90;;;15.81;58.71;100537.66;4850209;28;97859;-89
2023/11/20 04:00:55;;;;;;;2.03;0.30;;;15.70;99.90;;;15.79;58.41;100526.25;4865986;28;97390;-89
2023/11/20 04:03:21;;;;;;;0.43;0.33;;;15.70;99.90;;;15.71;58.67;100537.34;4834050;28;117497;-89
2023/11/20 04:05:48;;;;;;;1.93;0.60;;;15.60;99.90;;;15.66;59.27;100537.59;4872641;28;105673;-93
2023/11/20 04:08:14;;;;;;;1.33;0.30;;;15.60;99.90;;;15.67;59.44;100544.63;4875749;28;97818;-89
2023/11/20 04:10:40;;;;;;;2.07;0.30;;;15.60;99.90;;;15.62;59.20;100540.50;4899602;28;97196;-90
2023/11/20 04:13:10;;;;;;;0.57;0.10;;;15.50;99.90;;;15.80;58.66;100543.94;4880313;28;100551;-89
2023/11/20 04:15:36;;;;;;;1.20;0.20;;;15.70;99.90;;;15.94;58.54;100555.47;4916553;28;97438;-89
2023/11/20 04:18:02;;;;;;;2.10;0.43;;;15.90;99.90;;;15.98;57.93;100556.13;4896144;28;97813;-89
2023/11/20 04:20:28;;;;;;;0.67;0.20;;;16.00;99.90;;;15.80;59.03;100554.56;4874804;28;97129;-89
2023/11/20 04:22:54;;;;;;;0.90;0.40;;;15.80;99.90;;;15.77;58.74;100571.56;4869713;28;99452;-90
2023/11/20 04:25:21;;;;;;;1.30;0.30;;;15.80;99.90;;;15.78;59.57;100562.63;4894809;28;98751;-89
2023/11/20 04:27:52;;;;;;;1.63;0.43;;;15.70;99.90;;;15.89;59.15;100569.97;4860648;28;98880;-89
2023/11/20 04:30:24;;;;;;;3.33;0.60;;;15.80;99.90;;;15.98;58.72;100567.63;4850027;28;97303;-89
2023/11/20 04:32:50;;;;;;;1.23;0.30;;;16.00;99.90;;;16.04;58.12;100566.38;4839321;28;100567;-92
2023/11/20 04:35:16;;;;;;;0.70;0.30;;;16.10;99.90;;;16.00;58.85;100570.19;4839320;28;97749;-89
2023/11/20 04:37:42;;;;;;;0.43;0.37;;;16.00;99.90;;;15.93;59.16;100555.56;4909294;28;97490;-89
2023/11/20 04:40:13;;;;;;;0.73;0.33;;;15.90;99.90;;;15.91;59.13;100560.97;4897127;28;97344;-90
2023/11/20 04:42:38;;;;;;;1.47;0.67;;;15.90;99.90;;;15.72;60.00;100563.81;4861315;28;99022;-89
2023/11/20 04:45:05;;;;;;;2.00;0.50;;;15.70;99.90;;;15.76;60.22;100549.41;4905322;28;98729;-89
2023/11/20 04:47:32;;;;;;;1.23;0.50;;;15.70;99.90;;;15.60;60.43;100556.56;4872309;28;100335;-90
2023/11/20 04:49:58;;;;;;;2.43;0.37;;;15.50;99.90;;;15.51;60.92;100551.75;4870335;28;97438;-90
2023/11/20 04:52:24;;;;;;;2.03;0.30;;;15.40;99.90;;;15.62;60.21;100552.03;4875004;28;97378;-91
2023/11/20 04:54:52;;;;;;;1.27;0.40;;;15.50;99.90;;;15.55;60.68;100550.63;4871996;28;97229;-90
2023/11/20 04:57:18;;;;;;;0.60;0.30;;;15.40;99.90;;;15.74;59.35;100551.28;4870817;28;96935;-90
2023/11/20 04:59:44;;;;;;;2.07;0.47;;;15.60;99.90;;;15.72;59.60;100557.66;4879673;28;97199;-90
2023/11/20 05:02:13;;;;;;;3.17;0.60;;;15.60;99.90;;;15.60;60.09;100551.25;4862600;28;98171;-96
2023/11/20 05:04:39;;;;;;;0.87;0.30;;;15.50;99.90;;;15.81;59.63;100553.63;4863643;28;98523;-89
2023/11/20 05:07:05;;;;;;;3.37;0.50;;;15.70;99.90;;;15.96;59.30;100555.38;4885694;28;97524;-92
2023/11/20 05:09:31;;;;;;;1.17;0.20;;;15.90;99.90;;;15.89;59.13;100552.19;4900452;28;105127;-89
2023/11/20 05:11:59;;;;;;;2.93;0.63;;;15.90;99.90;;;15.97;58.55;100551.75;4844986;28;102318;-89
2023/11/20 05:14:26;;;;;;;1.40;0.40;;;16.00;99.90;;;16.05;58.24;100560.13;4886807;28;97187;-89
2023/11/20 05:16:52;;;;;;;2.10;0.53;;;16.10;99.90;;;15.96;57.66;100553.56;4912743;28;97167;-89
2023/11/20 05:19:18;;;;;;;3.73;0.40;;;16.00;99.90;;;15.97;58.71;100549.09;4881543;28;96969;-93
2023/11/20 05:21:47;;;;;;;0.33;0.33;;;16.00;99.90;;;15.99;57.43;100541.88;4891800;28;99734;-90
2023/11/20 05:24:14;;;;;;;2.50;0.50;;;16.10;99.90;;;15.92;57.66;100548.53;4833603;28;97440;-89
2023/11/20 05:26:39;;;;;;;3.13;0.33;;;16.00;99.90;;;15.90;56.69;100556.56;4842352;28;97235;-90
2023/11/20 05:29:07;;;;;;;5.33;0.70;;;16.00;99.90;;;15.86;58.64;100559.50;4849518;28;97517;-91
2023/11/20 05:31:33;;;;;;;1.67;0.30;;;15.80;99.90;;;15.93;57.62;100566.19;4840769;28;103214;-90
2023/11/20 05:34:00;;;;;;;1.33;0.53;;;15.90;99.90;;;16.03;57.79;100567.34;4848136;28;97583;-90
2023/11/20 05:36:26;;;;;;;2.33;0.40;;;16.00;99.90;;;15.90;58.30;100561.03;4844468;28;97527;-90
2023/11/20 05:38:52;;;;;;;2.60;0.87;;;15.90;99.90;;;15.69;56.71;100558.69;4830722;28;102345;-90
2023/11/20 05:41:18;;;;;;;0.90;0.40;;;15.70;99.90;;;15.84;57.05;100553.44;4896603;28;100323;-91
2023/11/20 05:43:43;;;;;;;5.47;0.63;;;15.90;99.90;;;15.93;56.89;100566.19;4853838;28;97620;-90
2023/11/20 05:46:13;;;;;;;2.20;0.60;;;16.00;99.90;;;15.97;57.02;100563.25;4853616;28;97398;-89
2023/11/20 05:48:39;;;;;;;1.03;0.60;;;16.00;99.90;;;16.03;56.13;100562.00;4860898;28;98395;-89
2023/11/20 05:51:06;;;;;;;5.40;0.70;;;16.20;99.90;;;15.87;56.42;100566.53;4821096;28;100180;-89
2023/11/20 05:53:32;;;;;;;1.87;0.40;;;16.00;99.90;;;15.94;56.43;100571.41;4836814;28;101028;-92
2023/11/20 05:55:58;;;;;;;0.97;0.50;;;16.00;99.90;;;15.99;58.15;100563.16;4865369;28;97361;-89
2023/11/20 05:58:25;;;;;;;3.43;0.50;;;16.00;99.90;;;16.06;57.86;100561.84;4851864;28;96897;-89
2023/11/20 06:00:51;;;;;;;1.47;0.40;;;16.20;99.90;;;16.03;57.40;100568.19;4851006;28;100583;-90
2023/11/20 06:03:20;;;;;;;3.70;0.70;;;16.10;99.90;;;16.06;57.17;100573.34;4823335;28;102434;-89
2023/11/20 06:05:46;;;;;;;2.63;0.70;;;16.20;99.90;;;16.11;57.56;100572.22;4858377;28;96988;-89
2023/11/20 06:08:12;;;;;;;3.90;1.00;;;16.20;99.90;;;16.10;55.70;100574.03;4890224;28;102255;-88
2023/11/20 06:10:38;;;;;;;4.03;0.90;;;16.20;99.90;;;15.95;56.08;100567.81;4873460;28;98868;-89
2023/11/20 06:13:06;;;;;;;2.87;0.70;;;16.10;99.90;;;15.81;56.38;100569.56;4867319;28;97270;-89
2023/11/20 06:15:32;;;;;;;1.40;0.50;;;15.90;99.90;;;15.85;58.22;100573.75;4893102;28;97377;-89
2023/11/20 06:18:04;;;;;;;5.93;0.90;;;15.80;99.90;;;15.84;57.40;100580.03;4880825;28;97023;-89
2023/11/20 06:20:31;;;;;;;2.83;0.43;;;15.80;99.90;;;15.96;56.45;100576.66;4848536;28;103147;-89
2023/11/20 06:22:57;;;;;;;2.27;0.63;;;16.00;99.90;;;16.06;57.91;100577.81;4831792;28;101726;-89
2023/11/20 06:25:23;;;;;;;3.53;0.90;;;16.10;99.90;;;15.89;56.41;100576.13;4864243;28;97209;-90
2023/11/20 06:27:49;;;;;;;4.10;0.60;;;15.90;99.90;;;16.10;57.90;100582.00;4876642;28;98527;-92
2023/11/20 06:30:16;;;;;;;6.70;0.83;;;16.10;99.90;;;16.09;57.00;100582.09;4816793;28;99162;-91
2023/11/20 06:32:42;;;;;;;1.20;0.50;;;16.10;99.90;;;16.11;57.59;100582.84;4842444;28;100055;-92
2023/11/20 06:35:08;;;;;;;4.37;0.70;;;16.10;99.90;;;16.10;56.82;100590.00;4845148;28;96902;-89
2023/11/20 06:37:34;;;;;;;1.67;0.53;;;16.20;99.90;;;16.08;56.65;100585.72;4874631;28;97106;-90
2023/11/20 06:40:00;;;;;;;3.00;0.70;;;16.10;99.90;;;16.12;57.48;100587.22;4842206;28;99713;-90
2023/11/20 06:42:27;;;;;;;5.90;0.77;;;16.10;99.90;;;16.10;55.67;100584.66;4862137;28;100258;-91
2023/11/20 06:44:56;;;;;;;5.07;0.87;;;16.10;99.90;;;16.06;57.63;100591.13;4849131;28;97010;-92
2023/11/20 06:47:22;;;;;;;3.97;0.60;;;16.00;99.90;;;15.93;56.28;100590.13;4761181;28;99695;-90
2023/11/20 06:49:49;;;;;;;4.83;0.97;;;16.00;99.90;;;15.87;56.64;100598.44;4732913;28;97168;-90
2023/11/20 06:52:25;;;;;;;1.27;0.50;;;15.80;99.90;;;15.77;56.13;100599.00;4685741;28;98386;-90
2023/11/20 06:54:54;;;;;;;2.13;0.60;;;15.80;99.90;;;15.79;57.57;100603.38;4736926;28;97390;-92
2023/11/20 06:57:46;;;;;;;4.20;0.67;;;15.80;99.90;;;15.87;57.44;100609.09;4676546;28;96949;-90
2023/11/20 07:00:24;;;;;;;1.93;0.40;;;15.90;99.90;;;15.92;58.13;100601.72;4676696;28;104164;-90
2023/11/20 07:02:58;;;;;;;4.27;0.87;;;15.80;99.90;;;15.99;56.49;100595.06;4688123;28;97639;-90
2023/11/20 07:05:37;;;;;;;3.20;0.60;;;16.00;99.90;;;15.92;57.47;100604.38;4712855;28;98689;-90
2023/11/20 07:08:08;;;;;;;2.53;0.83;;;15.90;99.90;;;15.94;57.97;100594.50;4692186;28;97281;-90
2023/11/20 07:10:37;;;;;;;5.20;1.10;;;15.90;99.90;;;15.82;57.58;100600.53;4734557;28;99327;-90
2023/11/20 07:13:09;;;;;;;3.33;0.70;;;15.80;99.90;;;15.81;56.28;100604.16;4789704;28;98140;-90
2023/11/20 07:15:38;;;;;;;2.33;0.90;;;15.80;99.90;;;15.93;55.86;100614.94;4741526;28;97130;-90
2023/11/20 07:18:08;;;;;;;6.87;0.80;;;15.90;99.90;;;15.96;56.91;100613.88;4705604;28;97167;-90
2023/11/20 07:20:47;;;;;;;5.23;0.77;;;15.90;99.90;;;15.89;55.34;100616.03;4714889;28;100259;-91
2023/11/20 07:23:13;;;;;;;7.87;1.40;;;15.90;99.90;;;15.95;57.07;100622.81;4614257;28;99632;-91
2023/11/20 07:25:48;;;;;;;5.40;0.93;;;15.90;99.90;;;15.83;55.25;100623.53;4671134;28;100388;-90
2023/11/20 07:28:27;;;;;;;5.90;1.00;;;15.90;99.90;;;15.93;57.84;100630.03;4771231;28;98823;-91
2023/11/20 07:31:08;;;;;;;4.60;0.80;;;15.80;99.90;;;16.10;57.56;100632.56;4721213;28;100239;-91
2023/11/20 07:33:34;;;;;;;1.53;0.77;;;16.10;99.90;;;16.14;57.24;100638.53;4759685;28;103303;-92
2023/11/20 07:36:18;;;;;;;1.00;0.50;;;16.10;99.90;;;16.13;55.14;100643.00;4789638;28;99995;-90
2023/11/20 07:38:53;;;;;;;4.77;1.00;;;16.20;99.90;;;16.06;57.33;100641.69;4808684;28;98707;-91
2023/11/20 07:41:29;;;;;;;4.23;1.07;;;16.00;99.90;;;16.12;57.26;100646.63;4817256;28;97752;-92
2023/11/20 07:43:55;;;;;;;4.77;0.90;;;16.10;99.90;;;16.23;55.43;100651.31;4636505;28;98368;-90
2023/11/20 07:46:24;;;;;;;2.23;0.80;;;16.20;99.90;;;16.17;57.00;100647.19;4784818;28;98981;-92
2023/11/20 07:48:54;;;;;;;7.20;1.53;;;16.20;99.90;;;16.00;54.47;100645.53;4782473;28;97161;-90
2023/11/20 07:51:20;;;;;;;6.33;1.43;;;16.10;99.90;;;16.07;57.01;100648.72;4756289;28;98260;-90
2023/11/20 07:53:48;;;;;;;3.80;0.80;;;16.10;99.90;;;16.14;56.96;100644.72;4807522;28;98543;-92
2023/11/20 07:56:17;;;;;;;3.13;0.73;;;16.10;99.90;;;16.21;55.68;100646.09;4803810;28;97501;-91
2023/11/20 07:58:44;;;;;;;4.43;0.93;;;16.30;99.90;;;16.21;54.53;100643.44;4776714;28;97400;-92
2023/11/20 08:01:10;;;;;;;0.70;0.50;;;16.30;99.90;;;16.21;55.68;100651.41;4866661;23;99978;-51
2023/11/20 08:03:36;;;;;;;5.03;1.00;;;16.20;99.90;;;16.25;56.37;100655.59;4926371;28;97635;-53
2023/11/20 08:06:02;;;;;;;2.80;0.70;;;16.20;99.90;;;16.26;55.29;100649.31;4915720;28;100186;-53
2023/11/20 08:08:27;;;;;;;3.60;0.50;;;16.30;99.90;;;16.31;55.44;100641.91;4915804;28;97553;-51
2023/11/20 08:10:53;;;;;;;6.03;1.03;;;16.40;99.90;;;16.24;54.10;100656.56;4908668;28;97439;-54
2023/11/20 08:13:21;;;;;;;4.00;0.73;;;16.30;99.90;;;16.19;57.03;100652.44;4914721;28;97821;-52
2023/11/20 08:15:47;;;;;;;4.70;1.13;;;16.20;99.90;;;15.98;55.33;100644.75;4909257;28;97861;-53
2023/11/20 08:18:12;;;;;;;2.23;0.40;;;16.00;99.90;;;16.10;56.44;100651.19;4914176;28;97331;-53
2023/11/20 08:20:38;;;;;;;4.07;1.13;;;16.00;99.90;;;16.24;56.82;100651.22;4894523;28;100845;-50
2023/11/20 08:23:04;;;;;;;1.87;0.53;;;16.20;99.90;;;16.28;54.82;100655.41;4914958;28;109768;-50
2023/11/20 08:25:30;;;;;;;4.30;0.53;;;16.40;99.90;;;16.26;56.40;100649.31;4913019;28;96942;-52
2023/11/20 08:27:55;;;;;;;2.13;0.53;;;16.30;99.90;;;16.25;55.84;100646.75;4913950;28;104853;-52
2023/11/20 08:30:21;;;;;;;3.03;0.77;;;16.20;99.90;;;16.21;57.05;100651.41;4914398;28;98238;-51
2023/11/20 08:32:47;;;;;;;5.33;1.03;;;16.10;99.90;;;16.19;57.18;100650.63;4910390;28;97601;-52
2023/11/20 08:35:13;;;;;;;2.53;0.53;;;16.10;99.90;;;16.07;56.62;100648.72;4925401;28;97227;-50
2023/11/20 08:37:39;;;;;;;2.03;0.80;;;16.00;99.90;;;16.07;55.94;100643.38;4916757;28;97770;-51
2023/11/20 08:40:08;;;;;;;3.43;0.57;;;16.00;99.90;;;16.16;57.14;100648.16;4921682;28;109336;-53
2023/11/20 08:42:34;;;;;;;2.77;0.70;;;16.00;99.90;;;16.02;56.17;100638.31;4912784;28;100048;-50
2023/11/20 08:45:00;;;;;;;1.00;0.50;;;16.00;99.90;;;15.99;55.65;100637.66;4919533;28;98188;-50
2023/11/20 08:47:26;;;;;;;3.60;0.70;;;15.90;99.90;;;16.03;56.72;100641.81;4909886;28;109908;-55
2023/11/20 08:49:53;;;;;;;6.80;0.80;;;15.90;99.90;;;16.10;57.26;100640.53;4913288;28;120147;-51
2023/11/20 08:52:19;;;;;;;6.07;0.50;;;16.00;99.90;;;16.22;57.23;100642.47;4913567;28;97771;-54
2023/11/20 08:54:45;;;;;;;5.70;0.67;;;16.20;99.90;;;16.23;56.85;100641.53;4913179;28;97635;-53
2023/11/20 08:57:11;;;;;;;3.53;0.80;;;16.20;99.90;;;16.17;56.82;100644.53;4900607;28;97829;-49
2023/11/20 08:59:36;;;;;;;2.13;0.53;;;16.20;99.90;;;16.27;55.88;100635.06;4918380;28;108460;-52
2023/11/20 09:02:03;;;;;;;4.47;0.93;;;16.30;99.90;;;16.25;56.83;100641.44;4914147;28;112388;-53
2023/11/20 09:04:29;;;;;;;2.40;0.70;;;16.30;99.90;;;16.25;54.47;100642.28;4908992;28;97518;-50
2023/11/20 09:06:54;;;;;;;5.63;0.63;;;16.40;99.90;;;16.33;56.27;100634.69;4911553;28;106101;-50
2023/11/20 09:09:21;;;;;;;1.13;0.43;;;16.30;99.90;;;16.39;56.52;100643.28;4909894;28;103613;-53
2023/11/20 09:11:46;;;;;;;1.53;0.53;;;16.40;99.90;;;16.43;54.31;100639.47;4915160;28;97740;-53
2023/11/20 09:14:12;;;;;;;3.53;0.77;;;16.50;99.90;;;16.28;56.03;100638.59;4910289;28;98063;-49
2023/11/20 09:16:38;;;;;;;2.10;0.50;;;16.30;99.90;;;16.25;54.86;100642.28;4907138;28;97684;-53
2023/11/20 09:19:04;;;;;;;2.00;0.60;;;16.20;99.90;;;16.35;55.09;100638.16;4909229;28;102008;-53
2023/11/20 09:21:30;;;;;;;2.17;0.47;;;16.30;99.90;;;16.09;56.16;100636.16;4911643;28;112935;-51
2023/11/20 09:23:55;;;;;;;6.00;0.60;;;16.10;99.90;;;16.09;55.56;100637.97;4905574;28;97844;-54
2023/11/20 09:26:22;;;;;;;4.47;0.80;;;16.10;99.90;;;16.00;57.57;100637.56;4894974;28;97672;-51
2023/11/20 09:28:49;;;;;;;5.90;0.77;;;16.00;99.90;;;15.95;57.43;100631.66;4907770;28;98021;-53
2023/11/20 09:31:19;;;;;;;2.20;0.63;;;15.90;99.90;;;16.03;57.27;100633.84;4911291;28;97093;-55
2023/11/20 09:33:47;;;;;;;3.73;0.90;;;15.90;99.90;;;15.95;57.44;100633.47;4911237;28;97331;-48
2023/11/20 09:36:12;;;;;;;3.50;0.70;;;15.90;99.90;;;15.91;57.17;100631.91;4912925;28;97345;-55
2023/11/20 09:38:38;;;;;;;6.53;0.60;;;15.80;99.90;;;15.86;58.28;100632.19;4908398;28;111258;-53
2023/11/20 09:41:04;;;;;;;6.40;0.80;;;15.70;99.90;;;15.93;57.06;100633.56;4915431;28;120588;-53
2023/11/20 09:43:31;;;;;;;3.60;0.50;;;15.80;99.90;;;15.94;57.22;100624.63;4911230;28;109690;-51
2023/11/20 09:46:06;;;;;;;0.77;0.30;;;15.80;99.90;;;15.88;58.21;100629.41;4908407;28;98112;-51
2023/11/20 09:48:33;;;;;;;2.30;0.87;;;15.80;99.90;;;15.77;58.32;100625.59;4913443;28;100280;-49
2023/11/20 09:51:02;;;;;;;4.03;0.70;;;15.70;99.90;;;15.66;58.82;100633.34;4910938;28;101564;-51
2023/11/20 09:53:36;;;;;;;2.70;0.63;;;15.50;99.90;;;15.59;59.34;100628.41;4914589;28;97783;-50
2023/11/20 09:56:05;;;;;;;6.27;0.70;;;15.40;99.90;;;15.47;59.89;100627.28;4916137;28;97715;-52
2023/11/20 09:58:31;;;;;;;2.77;0.60;;;15.30;99.90;;;15.44;59.88;100623.00;4910867;28;100242;-54
2023/11/20 10:01:09;;;;;;;3.70;0.77;;;15.20;99.90;;;15.32;59.96;100630.81;4911382;28;98141;-51
2023/11/20 10:03:40;;;;;;;2.87;0.60;;;15.10;99.90;;;15.25;60.60;100629.44;4910193;28;97270;-50
2023/11/20 10:06:13;;;;;;;2.67;0.73;;;15.00;99.90;;;15.35;59.21;100628.00;4913118;28;97346;-50
2023/11/20 10:08:48;;;;;;;6.33;0.60;;;15.20;99.90;;;15.62;58.74;100631.81;4876260;28;101653;-50
2023/11/20 10:11:22;;;;;;;5.90;0.60;;;15.50;99.90;;;15.81;58.16;100620.97;4912791;28;97846;-53
2023/11/20 10:13:48;;;;;;;2.33;0.43;;;15.70;99.90;;;15.75;58.43;100618.63;4906875;28;97318;-52